Time;durP1;ratioP1;P1;durP2;ratioP2;P2;SDS_P1;SDS_P2;PMS_P1;PMS_P2;Temp;Humidity;BMP_temperature;BMP_pressure;BME280_temperature;BME280_humidity;BME280_pressure;Samples;Min_cycle;Max_cycle;Signal;HPM_P1;HPM_P2
2024/01/11 00:00:46;;;;;;;25.40;14.03;;;-4.60;99.90;;;;;;2042194;28;20241;-63
2024/01/11 00:01:47;;;;;;;27.97;13.87;;;-4.60;99.90;;;;;;2044052;28;20669;-63
2024/01/11 00:02:48;;;;;;;28.73;14.07;;;-4.70;99.70;;;;;;2045516;28;20313;-63
2024/01/11 00:03:48;;;;;;;24.10;13.33;;;-4.70;99.50;;;;;;2045604;28;20728;-63
2024/01/11 00:04:49;;;;;;;26.67;12.83;;;-4.70;99.30;;;;;;2042185;28;20319;-62
2024/01/11 00:05:50;;;;;;;25.70;13.70;;;-4.70;99.30;;;;;;2045999;28;20228;-62
2024/01/11 00:06:51;;;;;;;26.95;14.85;;;-4.70;99.40;;;;;;2045958;28;20474;-62
2024/01/11 00:07:52;;;;;;;24.37;13.10;;;-4.60;99.90;;;;;;2046096;28;20229;-62
2024/01/11 00:08:53;;;;;;;30.08;14.65;;;-4.70;99.60;;;;;;2045741;28;20228;-62
2024/01/11 00:09:54;;;;;;;24.42;12.98;;;-4.80;99.40;;;;;;2045921;28;20239;-62
2024/01/11 00:10:55;;;;;;;22.30;12.93;;;-4.80;99.40;;;;;;2045427;28;20230;-62
2024/01/11 00:11:55;;;;;;;27.83;14.37;;;-5.00;98.80;;;;;;2045362;28;20255;-62
2024/01/11 00:12:56;;;;;;;25.53;13.23;;;-4.90;99.90;;;;;;2045113;28;20238;-62
2024/01/11 00:13:57;;;;;;;28.07;14.33;;;-4.90;99.80;;;;;;2045286;28;20706;-62
2024/01/11 00:14:58;;;;;;;27.10;12.83;;;-4.90;99.90;;;;;;2045625;28;20705;-62
2024/01/11 00:15:59;;;;;;;25.13;13.75;;;-5.00;99.80;;;;;;2046142;28;20247;-62
2024/01/11 00:17:00;;;;;;;27.53;14.23;;;-5.00;99.60;;;;;;2044690;28;20347;-63
2024/01/11 00:18:01;;;;;;;27.38;14.73;;;-4.90;99.80;;;;;;2045489;28;20294;-61
2024/01/11 00:19:01;;;;;;;26.63;14.13;;;-4.90;99.90;;;;;;2046130;28;20180;-62
2024/01/11 00:20:03;;;;;;;28.17;14.40;;;-4.80;99.90;;;;;;2044576;28;20191;-62
2024/01/11 00:21:03;;;;;;;29.15;15.40;;;-4.80;99.90;;;;;;2043989;28;20185;-62
2024/01/11 00:22:04;;;;;;;23.50;13.13;;;-4.80;99.90;;;;;;2042855;28;20204;-62
2024/01/11 00:23:05;;;;;;;31.60;14.37;;;-4.80;99.90;;;;;;2043354;28;20240;-62
2024/01/11 00:24:05;;;;;;;25.80;13.97;;;-4.80;99.90;;;;;;2043807;28;20283;-62
2024/01/11 00:25:07;;;;;;;26.53;13.93;;;-4.90;99.90;;;;;;2042819;28;20192;-62
2024/01/11 00:26:07;;;;;;;27.02;13.85;;;-4.90;99.90;;;;;;2042949;28;20232;-62
2024/01/11 00:27:08;;;;;;;28.33;14.03;;;-4.80;99.90;;;;;;2043839;28;20184;-62
2024/01/11 00:28:09;;;;;;;26.23;13.97;;;-4.80;99.90;;;;;;2043206;28;20180;-62
2024/01/11 00:29:10;;;;;;;27.53;14.43;;;-4.90;99.90;;;;;;2043523;28;20188;-62
2024/01/11 00:30:10;;;;;;;29.07;14.97;;;-4.80;99.90;;;;;;2042535;28;20608;-62
2024/01/11 00:31:11;;;;;;;27.07;13.83;;;-4.80;99.90;;;;;;2042500;28;20187;-62
2024/01/11 00:32:12;;;;;;;27.17;14.07;;;-4.80;99.90;;;;;;2042033;28;20242;-62
2024/01/11 00:33:12;;;;;;;30.00;15.67;;;-4.80;99.90;;;;;;2045424;28;20221;-62
2024/01/11 00:34:13;;;;;;;29.67;16.40;;;-4.80;99.90;;;;;;2038340;28;20209;-62
2024/01/11 00:35:14;;;;;;;31.40;16.47;;;-4.70;99.90;;;;;;2045945;28;20198;-62
2024/01/11 00:36:20;;;;;;;28.23;15.70;;;-4.70;99.90;;;;;;2045962;28;20263;-62
2024/01/11 00:37:20;;;;;;;28.10;14.13;;;-4.80;99.90;;;;;;2045400;28;20197;-62
2024/01/11 00:38:21;;;;;;;30.73;15.17;;;-4.70;99.90;;;;;;2045318;28;20248;-62
2024/01/11 00:39:22;;;;;;;24.40;13.10;;;-4.90;99.90;;;;;;2045933;28;20233;-62
2024/01/11 00:40:22;;;;;;;20.83;13.20;;;-4.80;99.90;;;;;;2045001;28;20754;-63
2024/01/11 00:41:25;;;;;;;28.90;16.20;;;-4.80;99.90;;;;;;2045077;28;20229;-62
2024/01/11 00:42:25;;;;;;;27.65;14.70;;;-4.80;99.90;;;;;;2045708;28;20307;-62
2024/01/11 00:43:26;;;;;;;28.10;13.87;;;-4.70;99.90;;;;;;2043700;28;20298;-62
2024/01/11 00:44:26;;;;;;;26.87;13.63;;;-4.80;99.90;;;;;;2044491;28;20749;-62
2024/01/11 00:45:27;;;;;;;29.17;14.97;;;-4.80;99.90;;;;;;2044779;28;20248;-63
2024/01/11 00:46:28;;;;;;;25.57;14.23;;;-4.80;99.90;;;;;;2044382;28;20287;-62
2024/01/11 00:47:28;;;;;;;26.80;13.63;;;-4.80;99.80;;;;;;2043955;28;20931;-62
2024/01/11 00:48:29;;;;;;;23.33;13.13;;;-4.80;99.80;;;;;;2043867;28;20227;-62
2024/01/11 00:49:30;;;;;;;25.47;12.90;;;-4.90;98.90;;;;;;2045037;28;20244;-62
2024/01/11 00:50:31;;;;;;;25.23;13.07;;;-5.00;99.00;;;;;;2045467;28;20244;-63
2024/01/11 00:51:31;;;;;;;22.97;11.70;;;-5.10;99.10;;;;;;2045329;28;20228;-62
2024/01/11 00:52:32;;;;;;;24.70;12.63;;;-5.10;99.90;;;;;;2044826;28;20235;-62
2024/01/11 00:53:33;;;;;;;24.17;12.40;;;-5.20;99.90;;;;;;2044561;28;20236;-62
2024/01/11 00:54:34;;;;;;;27.00;13.80;;;-5.10;99.90;;;;;;2044117;28;20242;-63
2024/01/11 00:55:34;;;;;;;27.20;13.53;;;-5.20;99.90;;;;;;2044092;28;20259;-62
2024/01/11 00:56:35;;;;;;;26.07;13.07;;;-5.10;99.90;;;;;;2039429;29;20349;-62
2024/01/11 00:57:36;;;;;;;23.97;11.93;;;-5.10;99.90;;;;;;2039233;29;20237;-62
2024/01/11 00:58:38;;;;;;;26.47;14.53;;;-5.10;99.90;;;;;;2044299;28;20632;-62
2024/01/11 00:59:40;;;;;;;25.23;12.60;;;-5.10;99.90;;;;;;2043879;28;20235;-62
2024/01/11 01:00:41;;;;;;;22.30;12.10;;;-5.10;99.90;;;;;;2043626;28;20311;-62
2024/01/11 01:01:48;;;;;;;22.50;12.30;;;-5.00;99.90;;;;;;2043859;28;20229;-61
2024/01/11 01:02:49;;;;;;;24.55;12.30;;;-4.90;99.90;;;;;;2043173;28;20238;-62
2024/01/11 01:03:49;;;;;;;23.07;11.83;;;-5.00;99.90;;;;;;2047573;28;20316;-62
2024/01/11 01:04:50;;;;;;;26.17;13.13;;;-5.00;99.50;;;;;;2047559;28;20336;-62
2024/01/11 01:05:51;;;;;;;25.93;13.30;;;-4.90;99.90;;;;;;2047624;28;20864;-62
2024/01/11 01:06:51;;;;;;;23.83;12.53;;;-4.90;99.90;;;;;;2047215;28;20260;-62
2024/01/11 01:07:52;;;;;;;25.77;12.87;;;-4.90;99.90;;;;;;2047108;28;20377;-61
2024/01/11 01:08:55;;;;;;;25.27;12.55;;;-4.90;99.90;;;;;;2047658;28;20234;-61
2024/01/11 01:09:56;;;;;;;25.73;13.13;;;-4.90;99.90;;;;;;2040134;28;20235;-62
2024/01/11 01:10:56;;;;;;;24.23;12.13;;;-5.00;99.80;;;;;;2038305;28;20314;-62
2024/01/11 01:11:57;;;;;;;18.83;10.50;;;-5.00;99.70;;;;;;2045488;28;20315;-62
2024/01/11 01:12:58;;;;;;;22.03;12.37;;;-5.00;99.30;;;;;;2052725;28;20216;-62
2024/01/11 01:13:58;;;;;;;23.60;12.43;;;-5.00;99.10;;;;;;2053685;28;20219;-63
2024/01/11 01:14:59;;;;;;;27.17;13.00;;;-5.00;99.00;;;;;;2053381;28;20625;-62
2024/01/11 01:16:00;;;;;;;24.23;11.67;;;-5.00;98.90;;;;;;2053372;28;20318;-62
2024/01/11 01:17:00;;;;;;;25.47;12.60;;;-5.20;98.30;;;;;;2053064;28;20262;-62
2024/01/11 01:18:01;;;;;;;25.23;13.53;;;-5.20;98.50;;;;;;2051599;28;20239;-62
2024/01/11 01:19:02;;;;;;;25.47;13.17;;;-5.10;99.00;;;;;;2045899;28;20193;-63
2024/01/11 01:20:03;;;;;;;22.93;11.47;;;-5.10;99.60;;;;;;2045484;28;20276;-62
2024/01/11 01:21:06;;;;;;;21.55;11.32;;;-5.30;99.90;;;;;;2044811;28;20470;-62
2024/01/11 01:22:07;;;;;;;24.20;11.45;;;-5.40;99.90;;;;;;2044341;28;20181;-62
2024/01/11 01:23:08;;;;;;;24.77;13.33;;;-5.40;99.90;;;;;;2043976;28;20252;-62
2024/01/11 01:24:09;;;;;;;25.37;12.03;;;-5.30;99.90;;;;;;2044316;28;20216;-63
2024/01/11 01:25:10;;;;;;;23.27;12.13;;;-5.30;99.90;;;;;;2044646;28;20184;-62
2024/01/11 01:26:10;;;;;;;24.40;12.50;;;-5.30;99.90;;;;;;2044744;28;20208;-62
2024/01/11 01:27:11;;;;;;;22.80;12.07;;;-5.30;99.90;;;;;;2044863;28;20267;-62
2024/01/11 01:28:12;;;;;;;18.87;10.87;;;-5.30;99.90;;;;;;2044435;28;20191;-62
2024/01/11 01:29:12;;;;;;;18.77;10.20;;;-5.30;99.90;;;;;;2043926;28;20278;-62
2024/01/11 01:30:13;;;;;;;20.60;11.23;;;-5.40;99.90;;;;;;2043518;28;20180;-62
2024/01/11 01:31:14;;;;;;;24.37;11.83;;;-5.30;99.90;;;;;;2043749;28;20263;-62
2024/01/11 01:32:15;;;;;;;21.40;10.90;;;-5.20;99.90;;;;;;2044294;28;20194;-63
2024/01/11 01:33:15;;;;;;;23.43;11.40;;;-5.20;99.90;;;;;;2046934;28;20672;-61
2024/01/11 01:34:16;;;;;;;23.63;11.10;;;-5.20;99.90;;;;;;2047322;28;20224;-62
2024/01/11 01:35:17;;;;;;;19.57;10.27;;;-5.10;99.90;;;;;;2047223;28;20283;-61
2024/01/11 01:36:18;;;;;;;21.17;11.47;;;-5.20;99.80;;;;;;2046549;28;20299;-62
2024/01/11 01:37:18;;;;;;;18.37;9.77;;;-5.20;99.90;;;;;;2046645;28;20200;-61
2024/01/11 01:38:19;;;;;;;20.53;10.20;;;-5.20;99.90;;;;;;2046986;28;20231;-62
2024/01/11 01:39:20;;;;;;;17.77;10.07;;;-5.10;99.90;;;;;;2039476;29;20734;-62
2024/01/11 01:40:20;;;;;;;21.30;10.70;;;-5.10;99.90;;;;;;2039156;29;20391;-60
2024/01/11 01:41:21;;;;;;;19.17;9.73;;;-5.10;99.90;;;;;;2046514;28;20326;-62
2024/01/11 01:42:22;;;;;;;18.33;9.02;;;-5.00;99.90;;;;;;2046028;28;20267;-62
2024/01/11 01:43:23;;;;;;;22.30;10.97;;;-5.10;99.90;;;;;;2045614;28;20244;-63
2024/01/11 01:44:23;;;;;;;18.00;10.10;;;-5.10;99.90;;;;;;2046218;28;20232;-62
2024/01/11 01:45:24;;;;;;;22.30;12.00;;;-5.10;99.90;;;;;;2045257;28;20712;-62
2024/01/11 01:46:26;;;;;;;23.43;10.93;;;-5.10;99.90;;;;;;2045111;28;20606;-62
2024/01/11 01:47:28;;;;;;;18.05;9.50;;;-5.10;99.90;;;;;;2038909;29;20347;-62
2024/01/11 01:48:28;;;;;;;19.88;10.55;;;-5.20;99.80;;;;;;2039384;29;20236;-63
2024/01/11 01:49:29;;;;;;;20.47;11.23;;;-5.20;99.80;;;;;;2045171;28;20318;-63
2024/01/11 01:50:30;;;;;;;24.20;12.17;;;-5.10;99.90;;;;;;2044265;28;20585;-62
2024/01/11 01:51:32;;;;;;;22.77;10.35;;;-5.10;99.90;;;;;;2041700;28;20228;-62
2024/01/11 01:52:34;;;;;;;16.88;10.07;;;-5.10;99.80;;;;;;2045825;28;20238;-62
2024/01/11 01:53:35;;;;;;;16.17;10.02;;;-5.10;99.70;;;;;;2039545;29;20266;-62
2024/01/11 01:54:36;;;;;;;20.77;10.70;;;-5.10;99.60;;;;;;2039022;29;20239;-62
2024/01/11 01:55:37;;;;;;;22.08;10.38;;;-5.10;99.40;;;;;;2043912;28;20469;-62
2024/01/11 01:56:37;;;;;;;20.30;9.93;;;-5.10;99.20;;;;;;2043601;28;20240;-63
2024/01/11 01:57:40;;;;;;;18.73;9.30;;;-5.10;99.00;;;;;;2031850;28;20237;-62
2024/01/11 01:58:43;;;;;;;17.80;9.60;;;-5.10;99.00;;;;;;2031559;28;20229;-62
2024/01/11 01:59:45;;;;;;;18.05;9.50;;;-5.10;98.80;;;;;;2043278;28;20622;-63
2024/01/11 02:00:48;;;;;;;18.67;9.95;;;-5.20;98.50;;;;;;2041003;28;20231;-63
2024/01/11 02:01:49;;;;;;;19.45;10.07;;;-5.30;98.20;;;;;;2034396;28;20740;-62
2024/01/11 02:02:52;;;;;;;21.53;11.73;;;-5.30;98.30;;;;;;2033814;29;20235;-62
2024/01/11 02:03:55;;;;;;;19.75;11.80;;;-5.20;98.60;;;;;;2039196;29;20230;-62
2024/01/11 02:04:57;;;;;;;19.45;10.65;;;-5.20;98.50;;;;;;2038322;29;20228;-63
2024/01/11 02:05:57;;;;;;;17.95;10.50;;;-5.20;98.90;;;;;;2046210;28;20270;-62
2024/01/11 02:06:59;;;;;;;21.80;9.77;;;-5.20;99.90;;;;;;2045576;28;20229;-62
2024/01/11 02:08:03;;;;;;;20.75;11.18;;;-5.40;99.90;;;;;;2046389;28;20236;-63
2024/01/11 02:09:07;;;;;;;19.23;10.80;;;-5.50;99.60;;;;;;2044825;28;20243;-63
2024/01/11 02:10:08;;;;;;;21.13;11.30;;;-5.40;99.70;;;;;;2045952;28;20278;-63
2024/01/11 02:11:11;;;;;;;23.73;12.05;;;-5.30;99.90;;;;;;2046201;28;20215;-63
2024/01/11 02:12:12;;;;;;;23.27;10.77;;;-5.40;99.90;;;;;;2042472;28;20180;-63
2024/01/11 02:13:13;;;;;;;22.45;11.27;;;-5.30;99.90;;;;;;2045680;28;20192;-63
2024/01/11 02:14:15;;;;;;;22.60;10.73;;;-5.30;99.90;;;;;;2044911;28;20191;-63
2024/01/11 02:15:15;;;;;;;17.20;9.70;;;-5.40;99.90;;;;;;2045563;28;20255;-63
2024/01/11 02:16:16;;;;;;;19.90;10.30;;;-5.30;99.90;;;;;;2045036;28;20751;-63
2024/01/11 02:17:17;;;;;;;20.17;11.17;;;-5.40;99.90;;;;;;2044472;28;20192;-63
2024/01/11 02:18:18;;;;;;;23.13;12.03;;;-5.40;99.90;;;;;;2043995;28;20291;-63
2024/01/11 02:19:19;;;;;;;20.97;10.83;;;-5.40;99.90;;;;;;2044674;28;20731;-63
2024/01/11 02:20:20;;;;;;;21.98;10.43;;;-5.30;99.90;;;;;;2043999;28;20720;-63
2024/01/11 02:21:22;;;;;;;19.67;10.13;;;-5.40;99.90;;;;;;2043786;28;20247;-62
2024/01/11 02:22:35;;;;;;;20.40;10.63;;;-5.40;99.80;;;;;;2043064;28;20227;-62
2024/01/11 02:23:45;;;;;;;21.25;10.05;;;-5.50;99.40;;;;;;2038441;28;20243;-63
2024/01/11 02:24:46;;;;;;;21.90;10.73;;;-5.50;99.40;;;;;;2044520;28;20231;-63
2024/01/11 02:25:46;;;;;;;18.77;10.17;;;-5.40;99.90;;;;;;2043591;28;20246;-63
2024/01/11 02:27:04;;;;;;;19.30;10.43;;;-5.40;99.90;;;;;;2042991;28;20514;-63
2024/01/11 02:28:05;;;;;;;20.83;10.02;;;-5.40;99.90;;;;;;2045198;28;20224;-62
2024/01/11 02:29:06;;;;;;;17.37;9.43;;;-5.40;99.90;;;;;;2042305;28;20180;-63
2024/01/11 02:30:07;;;;;;;20.30;10.23;;;-5.50;99.90;;;;;;2042700;28;20227;-63
2024/01/11 02:31:08;;;;;;;18.27;10.10;;;-5.40;99.90;;;;;;2043044;28;20250;-63
2024/01/11 02:32:08;;;;;;;21.30;11.30;;;-5.30;99.90;;;;;;2042642;28;20278;-63
2024/01/11 02:33:10;;;;;;;21.57;11.17;;;-5.30;99.90;;;;;;2041644;28;20179;-62
2024/01/11 02:34:11;;;;;;;18.67;10.07;;;-5.30;99.90;;;;;;2045638;28;20191;-63
2024/01/11 02:35:13;;;;;;;18.63;10.60;;;-5.30;99.90;;;;;;2046043;28;20282;-62
2024/01/11 02:36:14;;;;;;;20.08;10.85;;;-5.40;99.90;;;;;;2038279;28;20205;-63
2024/01/11 02:37:16;;;;;;;19.97;11.10;;;-5.40;99.70;;;;;;2045682;28;20287;-63
2024/01/11 02:38:17;;;;;;;22.52;10.70;;;-5.40;99.60;;;;;;2041549;28;20180;-63
2024/01/11 02:39:19;;;;;;;20.48;11.50;;;-5.40;99.50;;;;;;2040345;28;20649;-63
2024/01/11 02:40:20;;;;;;;24.80;11.15;;;-5.40;99.40;;;;;;2037617;29;20188;-63
2024/01/11 02:41:22;;;;;;;21.27;11.47;;;-5.40;99.70;;;;;;2037098;29;20233;-63
2024/01/11 02:42:23;;;;;;;21.48;11.73;;;-5.40;99.90;;;;;;2035228;28;20474;-62
2024/01/11 02:43:24;;;;;;;23.93;12.10;;;-5.40;99.90;;;;;;2032272;28;20267;-62
2024/01/11 02:44:25;;;;;;;21.70;11.43;;;-5.40;99.90;;;;;;2044198;28;20222;-62
2024/01/11 02:45:25;;;;;;;19.98;11.00;;;-5.40;99.90;;;;;;2052090;28;20233;-63
2024/01/11 02:46:26;;;;;;;23.13;12.30;;;-5.40;99.90;;;;;;2042959;28;20323;-63
2024/01/11 02:47:27;;;;;;;20.00;10.50;;;-5.40;99.90;;;;;;2044000;28;20347;-63
2024/01/11 02:48:31;;;;;;;22.73;11.90;;;-5.40;99.90;;;;;;2043940;28;20227;-63
2024/01/11 02:49:31;;;;;;;24.20;12.23;;;-5.40;99.90;;;;;;2044396;28;20234;-62
2024/01/11 02:50:32;;;;;;;24.37;12.83;;;-5.50;99.90;;;;;;2044721;28;20238;-63
2024/01/11 02:51:33;;;;;;;22.15;12.10;;;-5.40;99.90;;;;;;2042982;28;20231;-62
2024/01/11 02:52:34;;;;;;;28.60;12.77;;;-5.50;99.90;;;;;;2042672;28;20266;-63
2024/01/11 02:53:35;;;;;;;26.77;12.93;;;-5.40;99.90;;;;;;2042804;28;20242;-62
2024/01/11 02:54:36;;;;;;;25.53;12.37;;;-5.30;99.90;;;;;;2041909;28;20233;-63
2024/01/11 02:55:36;;;;;;;19.27;11.37;;;-5.30;99.90;;;;;;2043874;28;20231;-63
2024/01/11 02:56:37;;;;;;;20.27;11.40;;;-5.20;99.90;;;;;;2043233;28;20238;-61
2024/01/11 02:57:38;;;;;;;26.87;12.07;;;-5.30;99.90;;;;;;2045525;28;20239;-63
2024/01/11 02:58:38;;;;;;;20.97;10.97;;;-5.20;99.90;;;;;;2046108;28;20716;-63
2024/01/11 02:59:40;;;;;;;22.83;12.20;;;-5.30;99.90;;;;;;2042819;28;20233;-62
2024/01/11 03:00:41;;;;;;;20.85;10.85;;;-5.30;99.90;;;;;;2042647;28;20262;-63
2024/01/11 03:01:41;;;;;;;23.23;11.87;;;-5.30;99.90;;;;;;2043531;28;20760;-63
2024/01/11 03:02:42;;;;;;;25.80;13.27;;;-5.20;99.90;;;;;;2040431;28;20231;-63
2024/01/11 03:03:43;;;;;;;22.30;12.07;;;-5.20;99.90;;;;;;2045323;28;20235;-63
2024/01/11 03:04:43;;;;;;;27.20;11.63;;;-5.20;99.90;;;;;;2044313;28;20394;-63
2024/01/11 03:05:44;;;;;;;27.37;13.33;;;-5.30;99.90;;;;;;2046226;28;20264;-63
2024/01/11 03:06:45;;;;;;;20.17;12.20;;;-5.20;99.90;;;;;;2046176;28;20235;-63
2024/01/11 03:07:45;;;;;;;19.33;9.83;;;-5.30;99.90;;;;;;2043856;28;20229;-63
2024/01/11 03:08:46;;;;;;;23.87;11.87;;;-5.30;99.90;;;;;;2045991;28;20234;-63
2024/01/11 03:09:47;;;;;;;20.47;11.33;;;-5.30;99.90;;;;;;2045468;28;20231;-63
2024/01/11 03:10:48;;;;;;;22.53;11.73;;;-5.30;99.90;;;;;;2045774;28;20235;-63
2024/01/11 03:11:48;;;;;;;22.53;11.83;;;-5.20;99.90;;;;;;2046216;28;20254;-63
2024/01/11 03:12:49;;;;;;;21.77;11.17;;;-5.10;99.90;;;;;;2043571;28;20633;-63
2024/01/11 03:13:50;;;;;;;24.63;12.67;;;-5.10;99.90;;;;;;2045311;28;20238;-63
2024/01/11 03:14:50;;;;;;;25.50;12.57;;;-5.10;99.90;;;;;;2039836;28;20640;-62
2024/01/11 03:15:51;;;;;;;21.30;10.60;;;-5.00;99.90;;;;;;2044525;28;20227;-63
2024/01/11 03:16:52;;;;;;;23.33;12.20;;;-5.10;99.90;;;;;;2045004;28;20587;-63
2024/01/11 03:17:52;;;;;;;22.47;11.77;;;-5.10;99.90;;;;;;2043992;28;20238;-63
2024/01/11 03:18:53;;;;;;;22.97;11.23;;;-5.10;99.90;;;;;;2043812;28;20287;-63
2024/01/11 03:19:54;;;;;;;20.00;10.60;;;-5.20;99.90;;;;;;2045508;28;20736;-63
2024/01/11 03:20:54;;;;;;;22.30;11.10;;;-5.10;99.90;;;;;;2039283;28;20227;-63
2024/01/11 03:21:55;;;;;;;20.90;10.97;;;-5.20;99.90;;;;;;2045702;28;20283;-62
2024/01/11 03:22:56;;;;;;;23.77;12.07;;;-5.20;99.90;;;;;;2044879;28;20229;-61
2024/01/11 03:23:57;;;;;;;22.40;11.13;;;-5.20;99.90;;;;;;2044508;28;20230;-62
2024/01/11 03:24:57;;;;;;;18.77;10.77;;;-5.10;99.90;;;;;;2045271;28;20228;-62
2024/01/11 03:25:58;;;;;;;20.53;11.60;;;-5.20;99.90;;;;;;2045810;28;20240;-62
2024/01/11 03:26:59;;;;;;;21.17;10.33;;;-5.10;99.90;;;;;;2042709;28;20239;-63
2024/01/11 03:27:59;;;;;;;19.93;11.03;;;-5.10;99.90;;;;;;2043234;28;20226;-63
2024/01/11 03:29:00;;;;;;;21.03;11.37;;;-5.20;99.80;;;;;;2042695;28;20597;-63
2024/01/11 03:30:01;;;;;;;20.53;9.80;;;-5.20;99.90;;;;;;2041979;28;20224;-63
2024/01/11 03:31:01;;;;;;;21.03;10.90;;;-5.20;99.90;;;;;;2041928;28;20176;-62
2024/01/11 03:32:02;;;;;;;23.67;11.87;;;-5.20;99.90;;;;;;2042266;28;20200;-63
2024/01/11 03:33:03;;;;;;;23.43;11.87;;;-5.20;99.90;;;;;;2041497;28;20191;-63
2024/01/11 03:34:04;;;;;;;24.23;11.57;;;-5.20;99.90;;;;;;2043142;28;20842;-63
2024/01/11 03:35:08;;;;;;;24.47;11.83;;;-5.20;99.70;;;;;;2043646;28;20183;-63
2024/01/11 03:36:11;;;;;;;23.15;12.15;;;-5.20;99.30;;;;;;2046163;28;20180;-63
2024/01/11 03:37:11;;;;;;;20.73;10.10;;;-5.20;99.00;;;;;;2044175;28;20191;-63
2024/01/11 03:38:12;;;;;;;23.90;11.97;;;-5.30;98.50;;;;;;2045810;28;20664;-63
2024/01/11 03:39:13;;;;;;;22.97;12.20;;;-5.40;98.40;;;;;;2045391;28;20239;-63
2024/01/11 03:40:14;;;;;;;21.27;10.57;;;-5.30;98.60;;;;;;2045463;28;20188;-63
2024/01/11 03:41:14;;;;;;;23.23;11.83;;;-5.30;98.70;;;;;;2045093;28;20179;-62
2024/01/11 03:42:15;;;;;;;23.30;12.20;;;-5.40;98.80;;;;;;2044144;28;20521;-63
2024/01/11 03:43:19;;;;;;;19.47;10.23;;;-5.40;98.90;;;;;;2042483;28;20303;-62
2024/01/11 03:44:19;;;;;;;26.65;11.82;;;-5.40;98.90;;;;;;2044948;28;20180;-63
2024/01/11 03:45:20;;;;;;;22.43;11.20;;;-5.50;98.70;;;;;;2036869;28;20687;-62
2024/01/11 03:46:21;;;;;;;17.87;10.03;;;-5.60;98.30;;;;;;2044142;28;20236;-63
2024/01/11 03:47:21;;;;;;;24.70;11.07;;;-5.70;97.90;;;;;;2044292;28;20599;-63
2024/01/11 03:48:22;;;;;;;23.60;12.37;;;-5.60;98.50;;;;;;2037566;29;20310;-63
2024/01/11 03:49:23;;;;;;;22.23;11.53;;;-5.50;98.90;;;;;;2037927;29;20228;-63
2024/01/11 03:50:24;;;;;;;22.15;12.25;;;-5.50;99.80;;;;;;2043164;28;20237;-62
2024/01/11 03:51:24;;;;;;;22.27;11.50;;;-5.50;99.90;;;;;;2043967;28;20599;-63
2024/01/11 03:52:25;;;;;;;24.50;11.67;;;-5.60;99.90;;;;;;2043794;28;20231;-63
2024/01/11 03:53:26;;;;;;;27.13;13.83;;;-5.60;99.90;;;;;;2043043;28;20227;-63
2024/01/11 03:54:26;;;;;;;27.93;12.40;;;-5.60;99.90;;;;;;2043361;28;20234;-63
2024/01/11 03:55:27;;;;;;;27.97;12.47;;;-5.60;99.90;;;;;;2043098;28;20224;-63
2024/01/11 03:56:28;;;;;;;29.13;13.23;;;-5.70;99.90;;;;;;2042466;28;20734;-62
2024/01/11 03:57:28;;;;;;;24.00;13.23;;;-5.70;99.90;;;;;;2043215;28;20224;-62
2024/01/11 03:58:30;;;;;;;25.47;12.07;;;-5.60;99.90;;;;;;2042438;28;20219;-62
2024/01/11 03:59:30;;;;;;;25.17;12.30;;;-5.70;99.90;;;;;;2042857;28;20231;-62
2024/01/11 04:00:33;;;;;;;25.77;13.67;;;-5.70;99.90;;;;;;2042644;28;20224;-62
2024/01/11 04:01:39;;;;;;;26.33;13.82;;;-5.70;99.90;;;;;;2041684;28;20238;-63
2024/01/11 04:02:39;;;;;;;25.83;13.07;;;-5.60;99.90;;;;;;2041458;28;20366;-63
2024/01/11 04:03:42;;;;;;;23.50;12.50;;;-5.70;99.90;;;;;;2043351;28;20733;-63
2024/01/11 04:04:42;;;;;;;23.73;12.02;;;-5.80;99.90;;;;;;2044771;28;20744;-63
2024/01/11 04:05:43;;;;;;;23.73;13.70;;;-5.70;99.90;;;;;;2045025;28;20291;-63
2024/01/11 04:06:44;;;;;;;24.40;12.90;;;-5.70;99.90;;;;;;2045337;28;20254;-63
2024/01/11 04:07:45;;;;;;;24.40;11.93;;;-5.70;99.90;;;;;;2045844;28;20323;-63
2024/01/11 04:08:46;;;;;;;25.13;12.90;;;-5.70;99.90;;;;;;2044843;28;20235;-63
2024/01/11 04:09:46;;;;;;;24.53;13.10;;;-5.70;99.80;;;;;;2045679;28;20749;-63
2024/01/11 04:10:47;;;;;;;26.03;13.13;;;-5.70;99.60;;;;;;2046123;28;20616;-63
2024/01/11 04:11:48;;;;;;;25.77;11.87;;;-5.70;99.80;;;;;;2044932;28;20330;-63
2024/01/11 04:12:48;;;;;;;27.33;13.10;;;-5.70;99.60;;;;;;2045161;28;20262;-63
2024/01/11 04:13:49;;;;;;;24.27;12.20;;;-5.70;99.80;;;;;;2044465;28;20775;-63
2024/01/11 04:14:50;;;;;;;27.27;13.27;;;-5.60;99.90;;;;;;2044098;28;20343;-63
2024/01/11 04:15:50;;;;;;;29.50;13.80;;;-5.60;99.90;;;;;;2044836;28;20314;-63
2024/01/11 04:16:51;;;;;;;26.77;13.13;;;-5.60;99.90;;;;;;2044349;28;20236;-63
2024/01/11 04:17:52;;;;;;;26.60;13.13;;;-5.60;99.90;;;;;;2043483;28;20231;-63
2024/01/11 04:18:52;;;;;;;25.47;12.77;;;-5.60;99.90;;;;;;2043207;28;20272;-63
2024/01/11 04:19:53;;;;;;;24.23;13.17;;;-5.70;99.90;;;;;;2043884;28;20228;-63
2024/01/11 04:20:54;;;;;;;26.07;14.30;;;-5.70;99.90;;;;;;2045284;28;20368;-63
2024/01/11 04:21:54;;;;;;;24.37;13.30;;;-5.70;99.90;;;;;;2045306;28;20223;-63
2024/01/11 04:22:55;;;;;;;27.43;13.27;;;-5.70;99.90;;;;;;2042330;28;20224;-63
2024/01/11 04:23:57;;;;;;;27.03;13.83;;;-5.60;99.90;;;;;;2044312;28;20582;-63
2024/01/11 04:24:57;;;;;;;29.50;14.18;;;-5.50;99.90;;;;;;2044877;28;20236;-63
2024/01/11 04:25:58;;;;;;;26.80;13.90;;;-5.60;99.90;;;;;;2045183;28;20285;-63
2024/01/11 04:26:59;;;;;;;27.70;13.43;;;-5.50;99.90;;;;;;2044912;28;20232;-63
2024/01/11 04:27:59;;;;;;;24.17;12.77;;;-5.60;99.90;;;;;;2044248;28;20231;-63
2024/01/11 04:29:00;;;;;;;30.70;14.37;;;-5.60;99.90;;;;;;2044876;28;20673;-62
2024/01/11 04:30:01;;;;;;;25.60;13.97;;;-5.60;99.90;;;;;;2043807;28;20216;-63
2024/01/11 04:31:01;;;;;;;30.57;14.20;;;-5.50;99.90;;;;;;2044007;28;20705;-63
2024/01/11 04:32:02;;;;;;;28.13;13.37;;;-5.50;99.90;;;;;;2043668;28;20247;-63
2024/01/11 04:33:03;;;;;;;28.65;13.52;;;-5.60;99.90;;;;;;2042990;28;20249;-63
2024/01/11 04:34:04;;;;;;;26.88;14.40;;;-5.50;99.90;;;;;;2043093;28;20685;-63
2024/01/11 04:35:05;;;;;;;27.33;12.80;;;-5.50;99.90;;;;;;2047428;28;20196;-63
2024/01/11 04:36:06;;;;;;;29.70;14.73;;;-5.60;99.90;;;;;;2047621;28;20180;-63
2024/01/11 04:37:07;;;;;;;29.77;14.13;;;-5.70;99.70;;;;;;2046724;28;20191;-62
2024/01/11 04:38:08;;;;;;;28.03;14.37;;;-5.70;99.40;;;;;;2038293;29;20265;-63
2024/01/11 04:39:08;;;;;;;26.53;13.47;;;-5.70;99.90;;;;;;2041986;28;20426;-63
2024/01/11 04:40:10;;;;;;;25.83;13.77;;;-5.70;99.90;;;;;;2046698;28;20265;-62
2024/01/11 04:41:12;;;;;;;26.42;14.27;;;-5.60;99.90;;;;;;2046658;28;20172;-63
2024/01/11 04:42:14;;;;;;;28.40;13.90;;;-5.60;99.90;;;;;;2046732;28;20579;-63
2024/01/11 04:43:14;;;;;;;26.77;12.77;;;-5.60;99.80;;;;;;2035717;29;20213;-63
2024/01/11 04:44:15;;;;;;;24.17;12.53;;;-5.60;99.60;;;;;;2045541;28;20207;-63
2024/01/11 04:45:16;;;;;;;26.07;13.80;;;-5.60;99.30;;;;;;2046879;28;20284;-63
2024/01/11 04:46:22;;;;;;;24.93;13.93;;;-5.50;99.40;;;;;;2045428;28;20204;-63
2024/01/11 04:47:23;;;;;;;24.60;13.05;;;-5.50;99.50;;;;;;2045338;28;20227;-63
2024/01/11 04:48:23;;;;;;;26.77;13.43;;;-5.50;99.40;;;;;;2044770;28;20235;-62
2024/01/11 04:49:24;;;;;;;29.10;14.17;;;-5.50;99.80;;;;;;2045353;28;20227;-63
2024/01/11 04:50:25;;;;;;;25.33;12.67;;;-5.50;99.90;;;;;;2044046;28;20282;-63
2024/01/11 04:51:26;;;;;;;27.38;14.70;;;-5.70;99.50;;;;;;2044619;28;20235;-63
2024/01/11 04:52:27;;;;;;;30.02;14.65;;;-5.80;99.20;;;;;;2034759;29;20743;-62
2024/01/11 04:53:28;;;;;;;30.50;15.83;;;-5.90;99.30;;;;;;2043049;28;20346;-63
2024/01/11 04:54:28;;;;;;;30.43;14.90;;;-6.00;99.60;;;;;;2044063;28;20314;-63
2024/01/11 04:55:29;;;;;;;28.30;14.07;;;-5.90;99.90;;;;;;2045331;28;20843;-63
2024/01/11 04:56:30;;;;;;;30.27;15.00;;;-6.00;99.80;;;;;;2044285;28;20337;-63
2024/01/11 04:57:30;;;;;;;26.93;13.73;;;-6.00;99.90;;;;;;2038725;29;20311;-63
2024/01/11 04:58:31;;;;;;;30.90;14.87;;;-6.00;99.90;;;;;;2038843;29;20232;-63
2024/01/11 04:59:32;;;;;;;31.47;15.80;;;-5.90;99.90;;;;;;2043909;28;20269;-63
2024/01/11 05:00:33;;;;;;;33.23;16.53;;;-5.70;99.90;;;;;;2042934;28;20228;-63
2024/01/11 05:01:33;;;;;;;32.17;15.50;;;-5.70;99.90;;;;;;2046588;28;20237;-63
2024/01/11 05:02:34;;;;;;;28.37;13.07;;;-5.60;99.90;;;;;;2036714;29;20227;-63
2024/01/11 05:03:35;;;;;;;28.57;14.90;;;-5.60;99.90;;;;;;2042392;28;20713;-63
2024/01/11 05:04:35;;;;;;;29.07;15.20;;;-5.60;99.90;;;;;;2045104;28;20242;-62
2024/01/11 05:05:36;;;;;;;24.93;12.90;;;-5.60;99.70;;;;;;2046857;28;20240;-63
2024/01/11 05:06:37;;;;;;;28.00;14.40;;;-5.60;99.40;;;;;;2046240;28;20740;-63
2024/01/11 05:07:37;;;;;;;26.67;13.90;;;-5.60;99.00;;;;;;2047216;28;20278;-62
2024/01/11 05:08:38;;;;;;;28.33;14.73;;;-5.60;98.70;;;;;;2046620;28;20239;-63
2024/01/11 05:09:39;;;;;;;31.20;13.97;;;-5.60;98.70;;;;;;2045999;28;20605;-63
2024/01/11 05:10:40;;;;;;;28.50;14.23;;;-5.60;98.50;;;;;;2046880;28;20318;-63